Time;durP1;ratioP1;P1;durP2;ratioP2;P2;SDS_P1;SDS_P2;PMS_P1;PMS_P2;Temp;Humidity;BMP_temperature;BMP_pressure;BME280_temperature;BME280_humidity;BME280_pressure;Samples;Min_cycle;Max_cycle;Signal;HPM_P1;HPM_P2
2022/06/24 00:00:14;;;;;;;7.53;2.58;;;;;;;17.06;100.00;95805.25;4987143;28;20095;-77
2022/06/24 00:02:46;;;;;;;6.55;1.70;;;;;;;17.00;100.00;95796.28;4983270;28;20031;-78
2022/06/24 00:05:12;;;;;;;6.15;1.80;;;;;;;16.91;100.00;95787.72;4981789;28;20034;-78
2022/06/24 00:07:50;;;;;;;6.97;2.05;;;;;;;16.97;100.00;95796.72;4986721;28;20018;-77
2022/06/24 00:10:19;;;;;;;6.18;1.60;;;;;;;16.93;100.00;95801.63;4992183;28;20038;-78
2022/06/24 00:12:46;;;;;;;6.63;1.83;;;;;;;16.91;100.00;95819.59;4984561;28;20437;-78
2022/06/24 00:15:12;;;;;;;6.93;2.35;;;;;;;16.94;100.00;95818.38;4987983;28;20062;-78
2022/06/24 00:17:38;;;;;;;8.13;2.67;;;;;;;16.96;100.00;95822.44;4987567;28;20089;-78
2022/06/24 00:20:06;;;;;;;6.03;1.30;;;;;;;16.83;100.00;95814.50;4997519;28;20065;-78
2022/06/24 00:22:47;;;;;;;6.20;1.70;;;;;;;16.91;100.00;95808.16;4968441;28;20490;-77
2022/06/24 00:25:20;;;;;;;6.18;1.50;;;;;;;16.91;100.00;95810.81;4987507;28;20034;-78
2022/06/24 00:28:05;;;;;;;5.07;1.55;;;;;;;16.94;100.00;95816.53;4988100;28;20054;-77
2022/06/24 00:30:38;;;;;;;4.55;1.65;;;;;;;17.03;100.00;95801.16;4987980;28;20038;-78
2022/06/24 00:33:25;;;;;;;7.72;1.60;;;;;;;16.96;100.00;95793.22;4986156;28;20054;-78
2022/06/24 00:35:56;;;;;;;5.80;1.75;;;;;;;17.05;100.00;95793.81;4985566;28;20078;-77
2022/06/24 00:38:28;;;;;;;3.72;1.60;;;;;;;16.99;100.00;95781.38;4996745;28;20153;-79
2022/06/24 00:41:05;;;;;;;4.20;1.50;;;;;;;17.03;100.00;95787.06;4970592;28;20042;-79
2022/06/24 00:43:38;;;;;;;3.60;1.48;;;;;;;17.16;100.00;95801.13;4987502;28;20062;-77
2022/06/24 00:46:22;;;;;;;4.30;1.35;;;;;;;17.12;100.00;95791.94;4985591;28;20139;-78
2022/06/24 00:48:53;;;;;;;5.65;1.63;;;;;;;16.99;100.00;95794.66;4984854;28;20871;-78
2022/06/24 00:51:21;;;;;;;3.85;1.30;;;;;;;16.94;100.00;95800.59;4977616;28;20049;-78
2022/06/24 00:53:54;;;;;;;4.50;1.80;;;;;;;17.09;100.00;95802.97;4982384;28;20038;-78
2022/06/24 00:56:24;;;;;;;6.75;2.35;;;;;;;16.86;100.00;95782.22;4984763;28;20443;-78
2022/06/24 00:58:54;;;;;;;3.72;1.55;;;;;;;16.95;100.00;95790.78;4984078;28;20044;-78
2022/06/24 01:01:31;;;;;;;5.65;2.17;;;;;;;16.88;100.00;95776.72;4987481;28;20044;-77
2022/06/24 01:03:58;;;;;;;4.97;1.73;;;;;;;16.98;100.00;95778.94;4979986;28;20455;-78
2022/06/24 01:06:26;;;;;;;6.70;2.75;;;;;;;17.09;100.00;95780.91;4972891;28;20030;-78
2022/06/24 01:08:52;;;;;;;11.07;2.85;;;;;;;17.03;100.00;95789.72;5005550;28;20045;-78
2022/06/24 01:11:24;;;;;;;6.05;2.00;;;;;;;16.99;100.00;95780.56;4973039;28;20022;-78
2022/06/24 01:13:52;;;;;;;8.57;2.47;;;;;;;17.01;100.00;95775.84;4991036;28;20034;-78
2022/06/24 01:16:21;;;;;;;6.15;1.95;;;;;;;16.93;100.00;95775.06;4990624;28;20046;-78
2022/06/24 01:18:54;;;;;;;6.93;2.65;;;;;;;16.96;100.00;95781.78;5005321;28;20042;-77
2022/06/24 01:21:30;;;;;;;;;;;;;;;16.96;100.00;95782.59;4990221;28;20037;-78
2022/06/24 01:24:06;;;;;;;8.40;2.50;;;;;;;16.96;100.00;95785.25;4984236;28;19924;-79
2022/06/24 01:26:32;;;;;;;6.88;2.30;;;;;;;16.98;100.00;95784.25;4989362;28;20118;-78
2022/06/24 01:28:58;;;;;;;8.32;2.50;;;;;;;16.91;100.00;95778.97;4987649;28;20022;-78
2022/06/24 01:31:24;;;;;;;5.95;2.53;;;;;;;16.88;100.00;95782.03;4987424;28;20101;-79
2022/06/24 01:33:49;;;;;;;7.00;2.60;;;;;;;16.89;100.00;95786.31;4990050;28;20694;-78
2022/06/24 01:36:15;;;;;;;8.70;3.90;;;;;;;16.82;100.00;95780.19;4987591;28;20042;-78
2022/06/24 01:38:41;;;;;;;9.48;3.63;;;;;;;16.87;100.00;95785.72;4972837;28;20088;-78
2022/06/24 01:41:08;;;;;;;8.18;2.88;;;;;;;16.88;100.00;95764.25;4987667;28;20038;-78
2022/06/24 01:43:34;;;;;;;9.35;3.05;;;;;;;16.94;100.00;95758.09;4989184;28;20038;-78
2022/06/24 01:46:00;;;;;;;9.80;3.53;;;;;;;16.87;100.00;95767.94;4988930;28;20129;-78
2022/06/24 01:48:26;;;;;;;6.20;3.40;;;;;;;16.94;100.00;95773.22;4985839;28;20118;-78
2022/06/24 01:50:51;;;;;;;6.35;3.08;;;;;;;16.81;100.00;95770.63;4988026;28;20125;-77
2022/06/24 01:53:17;;;;;;;8.32;2.90;;;;;;;16.79;100.00;95764.69;4988566;28;20068;-79
2022/06/24 01:55:43;;;;;;;10.13;3.42;;;;;;;16.81;100.00;95773.28;4996795;28;20039;-78
2022/06/24 01:58:08;;;;;;;9.07;3.25;;;;;;;16.79;100.00;95777.97;4985590;28;20058;-78
2022/06/24 02:00:34;;;;;;;6.95;3.72;;;;;;;16.84;100.00;95773.66;4989737;28;20444;-78
2022/06/24 02:03:04;;;;;;;5.68;2.42;;;;;;;16.77;100.00;95777.34;4990828;28;20248;-78
2022/06/24 02:05:30;;;;;;;7.45;2.47;;;;;;;16.81;100.00;95773.28;4975290;28;20109;-79
2022/06/24 02:07:56;;;;;;;7.65;2.92;;;;;;;16.84;100.00;95765.69;4990643;28;20468;-79
2022/06/24 02:15:51;;;;;;;24.23;15.27;;;;;;;16.95;100.00;95750.94;4991490;28;20035;-79
2022/06/24 02:18:17;;;;;;;21.83;18.15;;;;;;;17.04;100.00;95747.03;4992848;28;20431;-78
2022/06/24 02:20:42;;;;;;;47.28;42.22;;;;;;;16.90;100.00;95742.78;4990143;28;20547;-78
2022/06/24 02:23:08;;;;;;;34.40;28.85;;;;;;;16.68;100.00;95750.19;4993229;28;20034;-79
2022/06/24 02:25:34;;;;;;;52.60;43.78;;;;;;;16.62;100.00;95749.19;4975476;28;20026;-80
2022/06/24 02:27:59;;;;;;;63.80;54.50;;;;;;;16.51;100.00;95744.53;4994058;28;20041;-78
2022/06/24 02:30:26;;;;;;;60.55;50.63;;;;;;;16.58;100.00;95747.16;4991055;28;20034;-78
2022/06/24 02:32:52;;;;;;;51.50;45.88;;;;;;;16.65;100.00;95748.75;4993156;28;20038;-78
2022/06/24 02:35:18;;;;;;;47.92;42.70;;;;;;;16.75;100.00;95739.59;4989686;28;20037;-78
2022/06/24 02:37:44;;;;;;;45.75;38.60;;;;;;;16.76;100.00;95741.19;4987210;28;20041;-79
2022/06/24 02:42:58;;;;;;;29.85;22.48;;;;;;;16.86;100.00;95736.25;4991555;28;20100;-78
2022/06/24 02:45:24;;;;;;;19.98;15.60;;;;;;;16.81;100.00;95723.63;4991714;28;20117;-78
2022/06/24 02:47:49;;;;;;;17.50;11.90;;;;;;;16.89;100.00;95725.22;4992633;28;20057;-78
2022/06/24 02:50:16;;;;;;;15.27;10.50;;;;;;;16.83;100.00;95724.22;4974397;28;20067;-78
2022/06/24 02:52:41;;;;;;;12.68;8.82;;;;;;;16.89;100.00;95718.06;4989833;28;20022;-78
2022/06/24 02:55:08;;;;;;;11.02;7.25;;;;;;;16.90;100.00;95713.56;4992336;28;20042;-78
2022/06/24 02:57:33;;;;;;;12.15;7.22;;;;;;;16.92;100.00;95704.38;4991014;28;20027;-79
2022/06/24 02:59:59;;;;;;;13.15;8.20;;;;;;;16.98;100.00;95705.38;4991104;28;20034;-79
2022/06/24 03:02:25;;;;;;;12.82;6.68;;;;;;;16.95;100.00;95701.28;4989984;28;20034;-79
2022/06/24 03:04:51;;;;;;;10.13;5.13;;;;;;;16.99;100.00;95698.22;4988844;28;20050;-78
2022/06/24 03:07:16;;;;;;;9.63;5.30;;;;;;;16.98;100.00;95701.91;4988785;28;20019;-78
2022/06/24 03:09:43;;;;;;;13.98;5.55;;;;;;;16.95;100.00;95697.81;4985449;28;20070;-78
2022/06/24 03:12:09;;;;;;;7.50;4.28;;;;;;;17.00;100.00;95702.47;4970774;28;20038;-78
2022/06/24 03:14:35;;;;;;;9.38;3.58;;;;;;;16.95;100.00;95695.16;4986954;28;20034;-78
2022/06/24 03:17:01;;;;;;;6.35;2.50;;;;;;;16.91;100.00;95688.66;4985948;28;20177;-78
2022/06/24 03:19:26;;;;;;;8.40;2.67;;;;;;;16.95;100.00;95687.19;4988087;28;20026;-78
2022/06/24 03:21:52;;;;;;;7.22;2.20;;;;;;;16.86;100.00;95694.56;4988305;28;20072;-79
2022/06/24 03:24:18;;;;;;;6.60;2.20;;;;;;;16.82;100.00;95685.41;4989223;28;20053;-79
2022/06/24 03:26:43;;;;;;;5.15;2.60;;;;;;;16.79;100.00;95690.34;4989743;28;20029;-78
2022/06/24 03:29:13;;;;;;;4.68;1.80;;;;;;;16.82;100.00;95687.25;4981428;28;20034;-78
2022/06/24 03:31:38;;;;;;;9.27;3.10;;;;;;;16.81;100.00;95693.59;4988082;28;20034;-78
2022/06/24 03:34:04;;;;;;;6.93;2.47;;;;;;;16.76;100.00;95691.56;4985658;28;20046;-79
2022/06/24 03:36:30;;;;;;;7.25;2.22;;;;;;;16.69;100.00;95691.56;4988858;28;20037;-78
2022/06/24 03:38:56;;;;;;;6.85;1.88;;;;;;;16.74;100.00;95698.91;4986956;28;20512;-79
2022/06/24 03:41:21;;;;;;;11.60;2.95;;;;;;;16.76;100.00;95696.88;4989090;28;20038;-78
2022/06/24 03:43:47;;;;;;;9.68;2.00;;;;;;;16.69;100.00;95702.19;4989652;28;20042;-78
2022/06/24 03:46:13;;;;;;;7.85;2.55;;;;;;;16.67;100.00;95693.63;4988920;28;20026;-78
2022/06/24 03:48:38;;;;;;;10.02;2.45;;;;;;;16.75;100.00;95702.41;4985231;28;20655;-78
2022/06/24 03:51:04;;;;;;;6.18;2.33;;;;;;;16.73;100.00;95698.09;4988729;28;20052;-78
2022/06/24 03:53:31;;;;;;;6.18;2.58;;;;;;;16.79;100.00;95696.44;4987924;28;20042;-78
2022/06/24 03:55:57;;;;;;;6.57;2.30;;;;;;;16.79;100.00;95699.09;4986531;28;20038;-78
2022/06/24 03:58:23;;;;;;;9.15;2.88;;;;;;;16.85;100.00;95700.13;4988154;28;20053;-78
2022/06/24 04:00:48;;;;;;;3.28;1.90;;;;;;;16.85;100.00;95697.47;4987344;28;20479;-78
2022/06/24 04:03:14;;;;;;;11.20;2.38;;;;;;;16.83;100.00;95697.66;4987973;28;20034;-78
2022/06/24 04:05:40;;;;;;;6.95;2.33;;;;;;;16.79;100.00;95700.97;4989015;28;20129;-78
2022/06/24 04:08:06;;;;;;;6.63;1.98;;;;;;;16.80;100.00;95702.56;4988471;28;20069;-78
2022/06/24 04:10:31;;;;;;;8.00;2.22;;;;;;;16.70;100.00;95705.69;4986545;28;20041;-78
2022/06/24 04:12:57;;;;;;;7.68;3.00;;;;;;;16.72;100.00;95701.75;4987135;28;20030;-78
2022/06/24 04:15:23;;;;;;;5.88;2.80;;;;;;;16.75;100.00;95705.06;4989102;28;20177;-77
2022/06/24 04:17:49;;;;;;;6.38;2.72;;;;;;;16.71;100.00;95715.25;4983064;28;20065;-78
2022/06/24 04:20:20;;;;;;;9.80;2.45;;;;;;;16.81;100.00;95704.22;4988757;28;20038;-77
2022/06/24 04:22:46;;;;;;;10.98;3.63;;;;;;;16.78;100.00;95704.66;4988257;28;20034;-78
2022/06/24 04:25:12;;;;;;;7.85;2.60;;;;;;;16.82;100.00;95704.00;4987413;28;20045;-78
2022/06/24 04:27:37;;;;;;;5.32;1.95;;;;;;;16.85;100.00;95698.28;4986879;28;20054;-78
2022/06/24 04:30:11;;;;;;;8.40;2.50;;;;;;;16.96;100.00;95697.59;4986726;28;20101;-78
2022/06/24 04:32:38;;;;;;;6.47;2.30;;;;;;;16.99;100.00;95701.69;4987750;28;20745;-78
2022/06/24 04:35:05;;;;;;;6.47;2.55;;;;;;;17.08;100.00;95702.25;4990260;28;20034;-78
2022/06/24 04:37:30;;;;;;;7.80;2.70;;;;;;;17.04;100.00;95693.91;4990553;28;20122;-78
2022/06/24 04:39:58;;;;;;;9.77;3.70;;;;;;;17.06;100.00;95691.81;4991591;28;20126;-78
2022/06/24 04:42:23;;;;;;;7.45;2.70;;;;;;;17.10;100.00;95686.91;4991551;28;20069;-78
2022/06/24 04:44:49;;;;;;;13.65;3.25;;;;;;;17.10;100.00;95687.75;4990271;28;20302;-78
2022/06/24 04:47:15;;;;;;;8.60;2.40;;;;;;;17.19;100.00;95688.28;4991112;28;20060;-79
2022/06/24 04:49:40;;;;;;;7.28;2.38;;;;;;;17.20;100.00;95676.63;4991909;28;20133;-78
2022/06/24 04:52:06;;;;;;;7.10;2.63;;;;;;;17.28;100.00;95667.59;4990038;28;20113;-78
2022/06/24 04:54:32;;;;;;;8.15;2.65;;;;;;;17.34;100.00;95677.38;4988483;28;20070;-78
2022/06/24 04:56:58;;;;;;;12.02;4.40;;;;;;;17.30;100.00;95673.50;4991833;28;20058;-78
2022/06/24 04:59:26;;;;;;;7.63;3.60;;;;;;;17.23;100.00;95684.16;4992050;28;20042;-78
2022/06/24 05:01:51;;;;;;;8.90;6.00;;;;;;;16.97;100.00;95698.44;4989901;28;20029;-79
2022/06/24 05:04:17;;;;;;;12.57;7.40;;;;;;;16.94;100.00;95714.78;4988544;28;20518;-78
2022/06/24 05:06:43;;;;;;;12.68;6.55;;;;;;;17.10;100.00;95706.34;4986266;28;20043;-78
2022/06/24 05:09:09;;;;;;;18.52;8.13;;;;;;;17.15;100.00;95706.50;4984117;28;20053;-78
2022/06/24 05:11:34;;;;;;;12.38;5.85;;;;;;;17.32;100.00;95701.50;4989418;28;20057;-78
2022/06/24 05:14:00;;;;;;;12.85;6.32;;;;;;;17.41;100.00;95694.91;4987975;28;20567;-79
2022/06/24 05:16:26;;;;;;;13.18;5.45;;;;;;;17.58;100.00;95683.75;4980105;28;20035;-79
2022/06/24 05:18:52;;;;;;;13.80;6.28;;;;;;;17.72;100.00;95682.59;4987624;28;20045;-78
2022/06/24 05:21:17;;;;;;;20.08;7.40;;;;;;;17.77;100.00;95681.97;4973126;28;20103;-78
2022/06/24 05:23:43;;;;;;;13.50;6.47;;;;;;;17.67;100.00;95680.59;4991830;28;20032;-78
2022/06/24 05:26:08;;;;;;;15.05;5.57;;;;;;;17.81;100.00;95677.84;4989934;28;20041;-78
2022/06/24 05:28:35;;;;;;;15.80;5.05;;;;;;;17.94;100.00;95672.41;4988775;28;20185;-78
2022/06/24 05:31:01;;;;;;;15.00;4.95;;;;;;;17.97;100.00;95677.28;4988822;28;20038;-79
2022/06/24 05:33:27;;;;;;;13.73;3.72;;;;;;;18.13;100.00;95682.03;4984691;28;20128;-75
2022/06/24 05:35:54;;;;;;;13.98;5.80;;;;;;;18.18;100.00;95672.59;4990032;28;20602;-79
2022/06/24 05:38:23;;;;;;;11.90;6.03;;;;;;;18.24;100.00;95669.88;4985196;28;20038;-79
2022/06/24 05:40:50;;;;;;;19.95;7.05;;;;;;;18.20;100.00;95671.31;4988708;28;20041;-78
2022/06/24 05:43:16;;;;;;;16.17;6.35;;;;;;;18.17;100.00;95670.94;4988879;28;20034;-79
2022/06/24 05:45:42;;;;;;;12.52;5.53;;;;;;;18.26;100.00;95673.09;4985167;28;20105;-79
2022/06/24 05:48:08;;;;;;;11.82;4.97;;;;;;;18.31;100.00;95672.47;4987646;28;20473;-79
2022/06/24 05:50:37;;;;;;;10.95;4.63;;;;;;;18.40;100.00;95679.09;4987701;28;20073;-78
2022/06/24 05:55:49;;;;;;;11.98;3.95;;;;;;;18.25;100.00;95668.81;4985801;28;20046;-79
2022/06/24 05:58:15;;;;;;;10.30;3.72;;;;;;;18.22;100.00;95673.78;4985958;28;20050;-79
2022/06/24 06:00:41;;;;;;;11.70;3.53;;;;;;;18.58;100.00;95660.47;4970545;28;20069;-79
2022/06/24 06:03:07;;;;;;;10.07;3.63;;;;;;;18.63;100.00;95669.63;4987334;28;20053;-78
2022/06/24 06:05:32;;;;;;;12.35;3.00;;;;;;;18.60;100.00;95655.72;4987049;28;20041;-79
2022/06/24 06:07:58;;;;;;;7.68;3.20;;;;;;;18.64;100.00;95655.28;4986817;28;20098;-79
2022/06/24 06:10:24;;;;;;;8.90;3.67;;;;;;;18.82;100.00;95655.28;4986742;28;20038;-79
2022/06/24 06:12:50;;;;;;;9.77;3.35;;;;;;;18.77;100.00;95645.28;4984922;28;20062;-79
2022/06/24 06:15:16;;;;;;;8.85;3.78;;;;;;;18.76;100.00;95640.19;4984211;28;20447;-78
2022/06/24 06:17:41;;;;;;;12.32;4.00;;;;;;;18.76;100.00;95640.19;4991525;28;20035;-78
2022/06/24 06:20:07;;;;;;;8.35;3.10;;;;;;;18.81;100.00;95640.31;4991265;28;20553;-79
2022/06/24 06:22:33;;;;;;;14.52;5.25;;;;;;;18.83;100.00;95632.94;4991844;28;20173;-78
2022/06/24 06:24:59;;;;;;;9.13;3.45;;;;;;;18.92;100.00;95631.59;4992547;28;20062;-79
2022/06/24 06:27:24;;;;;;;11.82;3.47;;;;;;;19.02;100.00;95623.03;4992175;28;20455;-79
2022/06/24 06:29:50;;;;;;;8.27;3.33;;;;;;;19.06;100.00;95629.53;4988432;28;20034;-75
2022/06/24 06:32:16;;;;;;;7.15;2.92;;;;;;;19.37;100.00;95633.78;4983599;28;20114;-76
2022/06/24 06:34:41;;;;;;;8.88;3.08;;;;;;;19.17;100.00;95627.94;4989023;28;20399;-75
2022/06/24 06:37:07;;;;;;;11.77;3.85;;;;;;;19.41;100.00;95626.13;4987282;28;20084;-75
2022/06/24 06:39:33;;;;;;;9.05;3.22;;;;;;;19.47;100.00;95623.38;4986859;28;20129;-75
2022/06/24 06:41:59;;;;;;;7.47;3.05;;;;;;;19.38;100.00;95619.41;4988406;28;20042;-75
2022/06/24 06:44:25;;;;;;;7.60;2.80;;;;;;;19.45;100.00;95612.13;4988038;28;20034;-75
2022/06/24 06:46:50;;;;;;;9.93;3.22;;;;;;;19.66;100.00;95609.97;4972820;28;20041;-75
2022/06/24 06:49:16;;;;;;;9.90;3.38;;;;;;;19.75;100.00;95619.25;4988759;28;20720;-75
2022/06/24 06:51:42;;;;;;;10.75;3.20;;;;;;;19.96;100.00;95617.88;4987027;28;20101;-75
2022/06/24 06:54:07;;;;;;;10.57;3.72;;;;;;;20.35;100.00;95623.50;4987389;28;20037;-76
2022/06/24 06:56:33;;;;;;;8.98;3.08;;;;;;;20.51;100.00;95624.66;4987824;28;20038;-76
2022/06/24 06:58:59;;;;;;;9.15;3.22;;;;;;;20.66;100.00;95624.97;4989045;28;20066;-75
2022/06/24 07:01:25;;;;;;;9.10;3.17;;;;;;;20.98;100.00;95619.13;4992625;28;20053;-75
2022/06/24 07:03:50;;;;;;;14.07;3.40;;;;;;;21.83;100.00;95602.94;4987368;28;20126;-75
2022/06/24 07:06:16;;;;;;;10.07;2.90;;;;;;;22.85;100.00;95600.75;4988058;28;20030;-76
2022/06/24 07:08:41;;;;;;;8.13;2.53;;;;;;;23.32;100.00;95605.53;4986887;28;20488;-76
2022/06/24 07:11:07;;;;;;;12.80;2.88;;;;;;;23.54;100.00;95605.47;4987002;28;20492;-76
2022/06/24 07:13:33;;;;;;;10.55;2.63;;;;;;;23.19;100.00;95611.31;4985549;28;20034;-75
2022/06/24 07:15:58;;;;;;;8.82;2.72;;;;;;;22.72;100.00;95615.34;4987728;28;20917;-76
2022/06/24 07:18:24;;;;;;;8.35;2.40;;;;;;;22.63;100.00;95603.44;4988120;28;20119;-78
2022/06/24 07:20:50;;;;;;;8.88;2.67;;;;;;;22.78;100.00;95602.84;4992419;28;20026;-78
2022/06/24 07:23:16;;;;;;;7.45;2.33;;;;;;;22.90;100.00;95602.69;4990550;28;20080;-78
2022/06/24 07:25:41;;;;;;;6.72;2.28;;;;;;;22.55;100.00;95601.22;4990145;28;20038;-78
2022/06/24 07:28:07;;;;;;;7.88;2.20;;;;;;;22.50;100.00;95604.66;4988441;28;20109;-76
2022/06/24 07:30:33;;;;;;;6.63;2.92;;;;;;;22.29;100.00;95610.81;4987909;28;20030;-76
2022/06/24 07:32:59;;;;;;;8.85;2.90;;;;;;;22.43;100.00;95600.53;4985979;28;20498;-76
2022/06/24 07:35:25;;;;;;;12.60;5.40;;;;;;;23.37;100.00;95599.41;4986946;28;20033;-76
2022/06/24 07:37:52;;;;;;;11.43;4.78;;;;;;;24.31;100.00;95582.63;4988041;28;20400;-76
2022/06/24 07:40:18;;;;;;;13.25;5.80;;;;;;;25.16;100.00;95587.75;4986913;28;20061;-76
2022/06/24 07:42:44;;;;;;;15.45;6.38;;;;;;;25.59;100.00;95593.72;4988554;28;20666;-76
2022/06/24 07:45:10;;;;;;;13.80;6.32;;;;;;;25.09;96.81;95596.06;4988174;28;20073;-76
2022/06/24 07:47:36;;;;;;;9.02;3.83;;;;;;;24.74;99.94;95593.28;4967361;28;20049;-76
2022/06/24 07:50:06;;;;;;;7.05;2.92;;;;;;;25.28;89.06;95576.72;4987319;28;20027;-76
2022/06/24 07:52:32;;;;;;;9.68;2.83;;;;;;;25.46;85.58;95586.19;4986904;28;20117;-76
2022/06/24 07:57:41;;;;;;;7.65;2.53;;;;;;;25.38;86.14;95585.63;4985167;28;20030;-76
2022/06/24 08:00:08;;;;;;;6.53;1.98;;;;;;;25.58;76.86;95584.81;4985593;28;20112;-77
2022/06/24 08:02:37;;;;;;;9.93;1.90;;;;;;;25.56;81.25;95592.38;4986861;28;20165;-76
2022/06/24 08:05:03;;;;;;;8.25;2.30;;;;;;;26.08;81.83;95583.16;4981085;28;20038;-76
2022/06/24 08:07:29;;;;;;;5.63;1.80;;;;;;;26.24;76.94;95588.50;4985505;28;20073;-76
2022/06/24 08:09:55;;;;;;;5.72;1.77;;;;;;;25.58;74.52;95589.38;4986158;28;20490;-76
2022/06/24 08:12:20;;;;;;;6.32;1.73;;;;;;;26.35;76.96;95598.19;4969171;28;20030;-76
2022/06/24 08:14:46;;;;;;;6.82;2.30;;;;;;;26.04;75.76;95587.47;4977949;28;20022;-76
2022/06/24 08:17:12;;;;;;;5.63;2.00;;;;;;;27.17;69.08;95597.88;4985237;28;20039;-76
2022/06/24 08:19:37;;;;;;;5.55;1.50;;;;;;;27.06;72.95;95588.97;4987224;28;20026;-76
2022/06/24 08:22:03;;;;;;;8.88;2.47;;;;;;;26.64;72.45;95590.28;4986363;28;20455;-76
2022/06/24 08:24:29;;;;;;;6.07;1.80;;;;;;;27.03;71.51;95587.66;4986374;28;20034;-77
2022/06/24 08:26:55;;;;;;;8.18;2.72;;;;;;;26.91;73.88;95583.69;4989741;28;20061;-77
2022/06/24 08:29:20;;;;;;;11.23;5.30;;;;;;;27.44;74.00;95582.00;4986406;28;20042;-77
2022/06/24 08:31:46;;;;;;;8.07;2.45;;;;;;;27.96;69.50;95576.97;4981997;28;20058;-76
2022/06/24 08:34:12;;;;;;;4.60;1.73;;;;;;;28.12;64.42;95564.13;4986623;28;20038;-76
2022/06/24 08:36:38;;;;;;;9.43;2.58;;;;;;;26.96;65.26;95570.97;4987351;28;20038;-77
2022/06/24 08:39:03;;;;;;;6.60;1.85;;;;;;;25.42;79.42;95574.31;4970910;28;20039;-77
2022/06/24 08:41:29;;;;;;;7.18;1.90;;;;;;;25.95;75.94;95564.88;4987388;28;20035;-78
2022/06/24 08:43:56;;;;;;;5.28;1.85;;;;;;;27.10;65.70;95570.34;4983887;28;20500;-77
2022/06/24 08:46:22;;;;;;;3.67;1.48;;;;;;;27.42;62.73;95562.56;4974808;28;20485;-77
2022/06/24 08:48:49;;;;;;;8.70;2.53;;;;;;;27.84;60.16;95558.47;4983300;28;20057;-76
2022/06/24 08:51:15;;;;;;;5.95;1.63;;;;;;;28.72;62.08;95545.56;4986661;28;20030;-77
2022/06/24 08:53:43;;;;;;;5.43;2.30;;;;;;;29.47;56.92;95541.22;4984412;28;20169;-77
2022/06/24 08:56:09;;;;;;;6.43;2.33;;;;;;;29.48;54.41;95550.97;4969501;28;20134;-77
2022/06/24 08:58:35;;;;;;;7.03;2.65;;;;;;;29.37;54.21;95545.69;4986954;28;20102;-78
2022/06/24 09:01:02;;;;;;;5.63;1.70;;;;;;;29.12;56.66;95549.63;4990304;28;20045;-77
2022/06/24 09:03:28;;;;;;;6.93;2.03;;;;;;;27.11;68.04;95561.97;4985015;28;20038;-77
2022/06/24 09:05:53;;;;;;;7.25;1.92;;;;;;;29.29;55.86;95551.81;4985776;28;20022;-77
2022/06/24 09:08:19;;;;;;;7.72;2.03;;;;;;;28.63;55.40;95550.81;4985870;28;21780;-77
2022/06/24 09:11:07;;;;;;;4.25;1.65;;;;;;;29.66;55.29;95547.44;4984615;28;20041;-77
2022/06/24 09:13:56;;;;;;;8.25;1.70;;;;;;;29.70;50.58;95544.94;4982010;28;20030;-77
2022/06/24 09:16:25;;;;;;;5.72;1.90;;;;;;;29.93;52.82;95545.88;4982454;28;20039;-78
2022/06/24 09:18:53;;;;;;;5.10;2.20;;;;;;;29.43;52.97;95540.22;4990462;28;20031;-80
2022/06/24 09:21:30;;;;;;;3.92;1.75;;;;;;;29.23;52.26;95550.28;4989631;28;20061;-80
2022/06/24 09:23:58;;;;;;;4.05;1.60;;;;;;;30.52;48.81;95541.53;4995747;28;20023;-77
2022/06/24 09:26:39;;;;;;;5.45;1.95;;;;;;;30.46;52.49;95540.00;4998424;28;20081;-76
2022/06/24 09:29:10;;;;;;;4.43;1.80;;;;;;;29.64;50.47;95533.38;4992135;28;20038;-77
2022/06/24 09:31:38;;;;;;;6.85;1.90;;;;;;;29.36;51.99;95535.97;4983213;28;20042;-78
2022/06/24 09:34:18;;;;;;;3.90;1.45;;;;;;;29.15;52.81;95533.91;4966696;28;20031;-80
2022/06/24 09:36:46;;;;;;;4.90;1.60;;;;;;;27.79;56.84;95539.56;4995005;28;20045;-80
2022/06/24 09:39:14;;;;;;;6.30;1.90;;;;;;;28.58;52.85;95523.84;4995595;28;20064;-80
2022/06/24 09:41:54;;;;;;;4.88;1.60;;;;;;;29.16;50.79;95527.38;4977213;28;20034;-78
2022/06/24 09:44:20;;;;;;;5.28;1.42;;;;;;;30.10;47.94;95529.03;4985459;28;20452;-80
2022/06/24 09:46:48;;;;;;;5.20;1.55;;;;;;;28.41;50.84;95523.53;4995718;28;20044;-78
2022/06/24 09:49:15;;;;;;;5.18;1.58;;;;;;;27.67;55.90;95533.75;5001943;28;20038;-79
2022/06/24 09:51:44;;;;;;;6.55;1.88;;;;;;;28.01;57.75;95522.06;4994837;28;20074;-80
2022/06/24 09:54:14;;;;;;;6.20;1.50;;;;;;;28.49;51.40;95524.78;4992055;28;20127;-80
2022/06/24 09:56:41;;;;;;;5.38;1.50;;;;;;;28.98;48.92;95520.84;4992457;28;20065;-80
2022/06/24 10:01:54;;;;;;;3.72;1.00;;;;;;;29.66;44.44;95512.22;4989817;28;20451;-80
2022/06/24 10:04:21;;;;;;;3.03;1.27;;;;;;;29.65;42.90;95512.53;4988629;28;20026;-79
2022/06/24 10:06:48;;;;;;;5.90;2.78;;;;;;;30.77;44.04;95510.34;4984754;28;20035;-80
2022/06/24 10:09:18;;;;;;;4.40;1.50;;;;;;;30.46;44.99;95516.41;4986793;28;20038;-79
2022/06/24 10:11:44;;;;;;;5.20;1.30;;;;;;;28.95;45.56;95516.03;4986529;28;20655;-79
2022/06/24 10:14:12;;;;;;;5.00;1.40;;;;;;;29.93;43.87;95513.34;4990982;28;20030;-80
2022/06/24 10:16:41;;;;;;;6.25;1.50;;;;;;;30.35;44.32;95511.47;4985102;28;20029;-78
2022/06/24 10:19:08;;;;;;;3.45;1.17;;;;;;;29.95;42.72;95506.53;4991576;28;20034;-79
2022/06/24 10:21:35;;;;;;;4.97;1.13;;;;;;;29.84;44.85;95496.97;4992196;28;20030;-77
2022/06/24 10:24:13;;;;;;;3.67;1.00;;;;;;;30.02;41.25;95498.00;4987768;28;20461;-80
2022/06/24 10:26:41;;;;;;;5.93;1.30;;;;;;;30.55;40.42;95500.22;4988536;28;20109;-79
2022/06/24 10:29:07;;;;;;;2.17;0.80;;;;;;;30.79;38.53;95501.91;4986983;28;20037;-79
2022/06/24 10:31:41;;;;;;;2.70;1.20;;;;;;;31.23;39.68;95492.97;4984597;28;20061;-79
2022/06/24 10:34:08;;;;;;;2.20;1.02;;;;;;;32.44;37.21;95483.88;4986729;28;20034;-80
2022/06/24 10:36:34;;;;;;;4.72;1.48;;;;;;;30.73;40.31;95495.75;4984504;28;20703;-79
2022/06/24 10:39:11;;;;;;;2.83;0.93;;;;;;;31.76;40.37;95497.66;4987377;28;20042;-80
2022/06/24 10:41:38;;;;;;;3.60;1.60;;;;;;;31.26;40.87;95499.72;4982903;28;20125;-78
2022/06/24 10:44:24;;;;;;;4.03;1.20;;;;;;;32.06;39.28;95490.63;4980678;28;20121;-80
2022/06/24 10:47:05;;;;;;;3.47;1.50;;;;;;;31.95;38.47;95483.84;4982653;28;20116;-79
2022/06/24 10:49:54;;;;;;;3.20;1.40;;;;;;;32.54;37.70;95478.91;4985385;28;20026;-80
2022/06/24 10:53:02;;;;;;;4.72;1.33;;;;;;;32.63;36.65;95482.47;4987193;28;20057;-78
2022/06/24 10:55:37;;;;;;;5.80;2.97;;;;;;;31.94;36.75;95476.81;4986772;28;20073;-80
2022/06/24 10:58:14;;;;;;;1.65;0.93;;;;;;;31.25;38.97;95488.03;4985606;28;20160;-80
2022/06/24 11:00:51;;;;;;;2.20;1.00;;;;;;;32.40;36.57;95481.75;4989285;28;20022;-80
2022/06/24 11:03:28;;;;;;;4.38;1.00;;;;;;;32.15;36.34;95483.25;4991509;28;20041;-79
2022/06/24 11:05:54;;;;;;;2.55;1.20;;;;;;;31.47;36.10;95489.97;4981190;28;20033;-80
2022/06/24 11:08:22;;;;;;;2.00;1.10;;;;;;;31.74;36.10;95493.63;4984202;28;20034;-80
2022/06/24 11:10:49;;;;;;;5.05;1.25;;;;;;;29.68;41.53;95480.22;4982416;28;21816;-80
2022/06/24 11:13:16;;;;;;;3.20;0.90;;;;;;;29.52;39.75;95481.56;4973341;28;20034;-80
2022/06/24 11:15:50;;;;;;;2.33;0.80;;;;;;;29.23;40.69;95487.97;4993065;28;20030;-80
2022/06/24 11:18:19;;;;;;;2.40;1.10;;;;;;;29.72;39.02;95475.78;4983010;28;20038;-80
2022/06/24 11:20:49;;;;;;;3.88;1.25;;;;;;;28.50;41.55;95489.31;4992353;28;20124;-80
2022/06/24 11:23:20;;;;;;;2.60;1.00;;;;;;;28.27;41.73;95485.53;4988638;28;20488;-79
2022/06/24 11:25:51;;;;;;;2.47;0.93;;;;;;;29.59;39.98;95490.09;4973384;28;20066;-79
2022/06/24 11:28:24;;;;;;;3.67;1.23;;;;;;;29.68;40.56;95487.50;4989414;28;20297;-80
2022/06/24 11:30:51;;;;;;;4.95;1.38;;;;;;;29.92;39.25;95492.78;4992531;28;20140;-79
2022/06/24 11:33:19;;;;;;;3.28;1.35;;;;;;;29.83;40.48;95482.63;4970703;28;20030;-79
2022/06/24 11:35:47;;;;;;;4.28;1.15;;;;;;;30.47;39.35;95481.91;4990201;28;20034;-79
2022/06/24 11:38:13;;;;;;;4.50;1.63;;;;;;;29.73;40.41;95474.69;4988618;28;20038;-78
2022/06/24 11:40:40;;;;;;;3.53;0.93;;;;;;;30.66;37.25;95477.16;4985973;28;20129;-78
2022/06/24 11:43:09;;;;;;;3.00;1.17;;;;;;;30.65;35.97;95467.44;4984849;28;20034;-78
2022/06/24 11:45:37;;;;;;;1.52;0.90;;;;;;;30.24;34.30;95470.19;4984837;28;20022;-79